sensor_id;sensor_type;location;lat;lon;timestamp;temperature;humidity
74946;HTU21D;63509;45.250;38.102;2023-04-25T00:01:47;11.43;79.58
74946;HTU21D;63509;45.250;38.102;2023-04-25T00:04:13;11.43;79.54
74946;HTU21D;63509;45.250;38.102;2023-04-25T00:06:39;11.41;79.53
74946;HTU21D;63509;45.250;38.102;2023-04-25T00:09:06;11.41;79.53
74946;HTU21D;63509;45.250;38.102;2023-04-25T00:11:36;11.38;79.52
74946;HTU21D;63509;45.250;38.102;2023-04-25T00:14:03;11.32;79.55
74946;HTU21D;63509;45.250;38.102;2023-04-25T00:16:30;11.29;79.58
74946;HTU21D;63509;45.250;38.102;2023-04-25T00:18:59;11.26;79.61
74946;HTU21D;63509;45.250;38.102;2023-04-25T00:21:25;11.26;79.62
74946;HTU21D;63509;45.250;38.102;2023-04-25T00:23:55;11.26;79.61
74946;HTU21D;63509;45.250;38.102;2023-04-25T00:26:21;11.25;79.60
74946;HTU21D;63509;45.250;38.102;2023-04-25T00:28:47;11.26;79.60
74946;HTU21D;63509;45.250;38.102;2023-04-25T00:31:13;11.26;79.58
74946;HTU21D;63509;45.250;38.102;2023-04-25T00:33:40;11.28;79.55
74946;HTU21D;63509;45.250;38.102;2023-04-25T00:36:07;11.28;79.53
74946;HTU21D;63509;45.250;38.102;2023-04-25T00:38:33;11.28;79.49
74946;HTU21D;63509;45.250;38.102;2023-04-25T00:41:00;11.29;79.48
74946;HTU21D;63509;45.250;38.102;2023-04-25T00:43:26;11.30;79.45
74946;HTU21D;63509;45.250;38.102;2023-04-25T00:45:53;11.30;79.43
74946;HTU21D;63509;45.250;38.102;2023-04-25T00:48:22;11.28;79.43
74946;HTU21D;63509;45.250;38.102;2023-04-25T00:50:54;11.30;79.42
74946;HTU21D;63509;45.250;38.102;2023-04-25T00:53:21;11.30;79.40
74946;HTU21D;63509;45.250;38.102;2023-04-25T00:55:47;11.27;79.40
74946;HTU21D;63509;45.250;38.102;2023-04-25T00:58:20;11.29;79.40
74946;HTU21D;63509;45.250;38.102;2023-04-25T01:00:48;11.29;79.39
74946;HTU21D;63509;45.250;38.102;2023-04-25T01:03:16;11.31;79.35
74946;HTU21D;63509;45.250;38.102;2023-04-25T01:05:43;11.30;79.33
74946;HTU21D;63509;45.250;38.102;2023-04-25T01:08:09;11.30;79.33
74946;HTU21D;63509;45.250;38.102;2023-04-25T01:10:36;11.28;79.32
74946;HTU21D;63509;45.250;38.102;2023-04-25T01:13:03;11.29;79.33
74946;HTU21D;63509;45.250;38.102;2023-04-25T01:15:29;11.29;79.31
74946;HTU21D;63509;45.250;38.102;2023-04-25T01:17:55;11.29;79.30
74946;HTU21D;63509;45.250;38.102;2023-04-25T01:20:22;11.28;79.28
74946;HTU21D;63509;45.250;38.102;2023-04-25T01:22:52;11.27;79.27
74946;HTU21D;63509;45.250;38.102;2023-04-25T01:25:18;11.27;79.28
74946;HTU21D;63509;45.250;38.102;2023-04-25T01:27:46;11.24;79.28
74946;HTU21D;63509;45.250;38.102;2023-04-25T01:30:13;11.23;79.29
74946;HTU21D;63509;45.250;38.102;2023-04-25T01:32:41;11.20;79.30
74946;HTU21D;63509;45.250;38.102;2023-04-25T01:35:09;11.19;79.33
74946;HTU21D;63509;45.250;38.102;2023-04-25T01:37:44;11.18;79.30
74946;HTU21D;63509;45.250;38.102;2023-04-25T01:40:12;11.17;79.33
74946;HTU21D;63509;45.250;38.102;2023-04-25T01:42:41;11.16;79.33
74946;HTU21D;63509;45.250;38.102;2023-04-25T01:45:09;11.16;79.33
74946;HTU21D;63509;45.250;38.102;2023-04-25T01:47:36;11.16;79.33
74946;HTU21D;63509;45.250;38.102;2023-04-25T01:50:04;11.15;79.31
74946;HTU21D;63509;45.250;38.102;2023-04-25T01:52:31;11.13;79.31
74946;HTU21D;63509;45.250;38.102;2023-04-25T01:54:59;11.12;79.32
74946;HTU21D;63509;45.250;38.102;2023-04-25T01:57:28;11.13;79.35
74946;HTU21D;63509;45.250;38.102;2023-04-25T01:59:59;11.16;79.33
74946;HTU21D;63509;45.250;38.102;2023-04-25T02:02:38;11.15;79.27
74946;HTU21D;63509;45.250;38.102;2023-04-25T02:05:07;11.15;79.27
74946;HTU21D;63509;45.250;38.102;2023-04-25T02:07:36;11.15;79.26
74946;HTU21D;63509;45.250;38.102;2023-04-25T02:10:03;11.15;79.24
74946;HTU21D;63509;45.250;38.102;2023-04-25T02:12:35;11.16;79.21
74946;HTU21D;63509;45.250;38.102;2023-04-25T02:15:20;11.14;79.20
74946;HTU21D;63509;45.250;38.102;2023-04-25T02:17:54;11.13;79.18
74946;HTU21D;63509;45.250;38.102;2023-04-25T02:20:21;11.13;79.22
74946;HTU21D;63509;45.250;38.102;2023-04-25T02:22:47;11.12;79.20
74946;HTU21D;63509;45.250;38.102;2023-04-25T02:25:13;11.11;79.19
74946;HTU21D;63509;45.250;38.102;2023-04-25T02:27:40;11.11;79.21
74946;HTU21D;63509;45.250;38.102;2023-04-25T02:30:07;11.10;79.23
74946;HTU21D;63509;45.250;38.102;2023-04-25T02:32:33;11.10;79.23
74946;HTU21D;63509;45.250;38.102;2023-04-25T02:35:03;11.10;79.23
74946;HTU21D;63509;45.250;38.102;2023-04-25T02:37:35;11.11;79.22
74946;HTU21D;63509;45.250;38.102;2023-04-25T02:40:02;11.11;79.21
74946;HTU21D;63509;45.250;38.102;2023-04-25T02:42:31;11.10;79.21
74946;HTU21D;63509;45.250;38.102;2023-04-25T02:44:57;11.11;79.18
74946;HTU21D;63509;45.250;38.102;2023-04-25T02:47:23;11.12;79.16
74946;HTU21D;63509;45.250;38.102;2023-04-25T02:49:49;11.12;79.17
74946;HTU21D;63509;45.250;38.102;2023-04-25T02:52:15;11.12;79.14
74946;HTU21D;63509;45.250;38.102;2023-04-25T02:54:43;11.12;79.14
74946;HTU21D;63509;45.250;38.102;2023-04-25T02:57:09;11.11;79.14
74946;HTU21D;63509;45.250;38.102;2023-04-25T02:59:37;11.10;79.15
74946;HTU21D;63509;45.250;38.102;2023-04-25T03:02:03;11.10;79.16
74946;HTU21D;63509;45.250;38.102;2023-04-25T03:04:31;11.11;79.16
74946;HTU21D;63509;45.250;38.102;2023-04-25T03:06:59;11.10;79.14
74946;HTU21D;63509;45.250;38.102;2023-04-25T03:09:25;11.11;79.13
74946;HTU21D;63509;45.250;38.102;2023-04-25T03:11:51;11.10;79.13
74946;HTU21D;63509;45.250;38.102;2023-04-25T03:14:18;11.11;79.12
74946;HTU21D;63509;45.250;38.102;2023-04-25T03:16:44;11.12;79.11
74946;HTU21D;63509;45.250;38.102;2023-04-25T03:19:10;11.13;79.12
74946;HTU21D;63509;45.250;38.102;2023-04-25T03:21:36;11.12;79.12
74946;HTU21D;63509;45.250;38.102;2023-04-25T03:24:04;11.14;79.10
74946;HTU21D;63509;45.250;38.102;2023-04-25T03:26:30;11.14;79.09
74946;HTU21D;63509;45.250;38.102;2023-04-25T03:28:56;11.13;79.08
74946;HTU21D;63509;45.250;38.102;2023-04-25T03:31:23;11.14;79.07
74946;HTU21D;63509;45.250;38.102;2023-04-25T03:33:49;11.13;79.07
74946;HTU21D;63509;45.250;38.102;2023-04-25T03:36:17;11.13;79.01
74946;HTU21D;63509;45.250;38.102;2023-04-25T03:38:43;11.11;79.01
74946;HTU21D;63509;45.250;38.102;2023-04-25T03:41:12;11.09;79.06
74946;HTU21D;63509;45.250;38.102;2023-04-25T03:43:42;11.08;79.06
74946;HTU21D;63509;45.250;38.102;2023-04-25T03:46:11;11.08;79.10
74946;HTU21D;63509;45.250;38.102;2023-04-25T03:48:39;11.07;79.10
74946;HTU21D;63509;45.250;38.102;2023-04-25T03:51:06;11.07;79.11
74946;HTU21D;63509;45.250;38.102;2023-04-25T03:53:35;11.03;79.13
74946;HTU21D;63509;45.250;38.102;2023-04-25T03:56:19;11.02;79.14
74946;HTU21D;63509;45.250;38.102;2023-04-25T03:58:51;11.02;79.13
74946;HTU21D;63509;45.250;38.102;2023-04-25T04:01:19;11.02;79.12
74946;HTU21D;63509;45.250;38.102;2023-04-25T04:03:46;11.03;79.13
74946;HTU21D;63509;45.250;38.102;2023-04-25T04:06:13;11.03;79.13
74946;HTU21D;63509;45.250;38.102;2023-04-25T04:08:42;11.03;79.11
74946;HTU21D;63509;45.250;38.102;2023-04-25T04:11:10;11.05;79.11
74946;HTU21D;63509;45.250;38.102;2023-04-25T04:13:37;11.04;79.10
74946;HTU21D;63509;45.250;38.102;2023-04-25T04:16:03;11.05;79.08
74946;HTU21D;63509;45.250;38.102;2023-04-25T04:18:30;11.08;79.08
74946;HTU21D;63509;45.250;38.102;2023-04-25T04:20:56;11.07;79.08
74946;HTU21D;63509;45.250;38.102;2023-04-25T04:23:24;11.09;79.08
74946;HTU21D;63509;45.250;38.102;2023-04-25T04:25:53;11.12;79.04
74946;HTU21D;63509;45.250;38.102;2023-04-25T04:28:39;11.11;79.02
74946;HTU21D;63509;45.250;38.102;2023-04-25T04:31:16;11.12;79.07
74946;HTU21D;63509;45.250;38.102;2023-04-25T04:33:46;11.13;79.08
74946;HTU21D;63509;45.250;38.102;2023-04-25T04:36:13;11.16;79.10
74946;HTU21D;63509;45.250;38.102;2023-04-25T04:38:40;11.20;79.08
74946;HTU21D;63509;45.250;38.102;2023-04-25T04:41:08;11.22;79.08
74946;HTU21D;63509;45.250;38.102;2023-04-25T04:43:47;11.26;79.05
74946;HTU21D;63509;45.250;38.102;2023-04-25T04:46:35;11.30;79.03
74946;HTU21D;63509;45.250;38.102;2023-04-25T04:49:29;11.33;79.03
74946;HTU21D;63509;45.250;38.102;2023-04-25T04:52:14;11.39;79.01
74946;HTU21D;63509;45.250;38.102;2023-04-25T04:55:01;11.44;78.97
74946;HTU21D;63509;45.250;38.102;2023-04-25T04:57:45;11.45;78.97
74946;HTU21D;63509;45.250;38.102;2023-04-25T05:00:32;11.48;78.95
74946;HTU21D;63509;45.250;38.102;2023-04-25T05:03:16;11.51;78.95
74946;HTU21D;63509;45.250;38.102;2023-04-25T05:06:01;11.53;78.94
74946;HTU21D;63509;45.250;38.102;2023-04-25T05:09:04;11.55;78.91
74946;HTU21D;63509;45.250;38.102;2023-04-25T05:11:53;11.58;78.88
74946;HTU21D;63509;45.250;38.102;2023-04-25T05:14:37;11.59;78.88
74946;HTU21D;63509;45.250;38.102;2023-04-25T05:17:27;11.59;78.90
74946;HTU21D;63509;45.250;38.102;2023-04-25T05:20:19;11.63;78.88
74946;HTU21D;63509;45.250;38.102;2023-04-25T05:23:04;11.66;78.87
74946;HTU21D;63509;45.250;38.102;2023-04-25T05:25:44;11.67;78.87
74946;HTU21D;63509;45.250;38.102;2023-04-25T05:28:33;11.67;78.87
74946;HTU21D;63509;45.250;38.102;2023-04-25T05:31:18;11.68;78.87
74946;HTU21D;63509;45.250;38.102;2023-04-25T05:33:52;11.69;78.88
74946;HTU21D;63509;45.250;38.102;2023-04-25T05:36:19;11.73;78.91
74946;HTU21D;63509;45.250;38.102;2023-04-25T05:38:46;11.77;78.95
74946;HTU21D;63509;45.250;38.102;2023-04-25T05:41:21;11.83;78.94
74946;HTU21D;63509;45.250;38.102;2023-04-25T05:43:53;11.87;78.92
74946;HTU21D;63509;45.250;38.102;2023-04-25T05:46:42;11.94;78.88
74946;HTU21D;63509;45.250;38.102;2023-04-25T05:49:30;11.98;78.85
74946;HTU21D;63509;45.250;38.102;2023-04-25T05:52:04;12.02;78.83
74946;HTU21D;63509;45.250;38.102;2023-04-25T05:54:41;12.06;78.82
74946;HTU21D;63509;45.250;38.102;2023-04-25T05:57:08;12.10;78.82
74946;HTU21D;63509;45.250;38.102;2023-04-25T05:59:35;12.14;78.83
74946;HTU21D;63509;45.250;38.102;2023-04-25T06:02:01;12.19;78.82
74946;HTU21D;63509;45.250;38.102;2023-04-25T06:04:30;12.23;78.83
74946;HTU21D;63509;45.250;38.102;2023-04-25T06:06:57;12.30;78.83
74946;HTU21D;63509;45.250;38.102;2023-04-25T06:09:22;12.36;78.83
74946;HTU21D;63509;45.250;38.102;2023-04-25T06:11:48;12.42;78.84
74946;HTU21D;63509;45.250;38.102;2023-04-25T06:14:15;12.50;78.82
74946;HTU21D;63509;45.250;38.102;2023-04-25T06:16:46;12.55;78.79
74946;HTU21D;63509;45.250;38.102;2023-04-25T06:19:12;12.59;78.75
74946;HTU21D;63509;45.250;38.102;2023-04-25T06:21:38;12.65;78.71
74946;HTU21D;63509;45.250;38.102;2023-04-25T06:24:05;12.67;78.67
74946;HTU21D;63509;45.250;38.102;2023-04-25T06:26:31;12.70;78.62
74946;HTU21D;63509;45.250;38.102;2023-04-25T06:28:58;12.73;78.58
74946;HTU21D;63509;45.250;38.102;2023-04-25T06:31:24;12.74;78.56
74946;HTU21D;63509;45.250;38.102;2023-04-25T06:33:51;12.76;78.53
74946;HTU21D;63509;45.250;38.102;2023-04-25T06:36:21;12.79;78.51
74946;HTU21D;63509;45.250;38.102;2023-04-25T06:38:53;12.79;78.47
74946;HTU21D;63509;45.250;38.102;2023-04-25T06:41:20;12.81;78.44
74946;HTU21D;63509;45.250;38.102;2023-04-25T06:43:46;12.80;78.42
74946;HTU21D;63509;45.250;38.102;2023-04-25T06:46:26;12.82;78.42
74946;HTU21D;63509;45.250;38.102;2023-04-25T06:48:54;12.86;78.39
74946;HTU21D;63509;45.250;38.102;2023-04-25T06:51:20;12.88;78.39
74946;HTU21D;63509;45.250;38.102;2023-04-25T06:53:47;12.90;78.40
74946;HTU21D;63509;45.250;38.102;2023-04-25T06:56:23;12.95;78.37
74946;HTU21D;63509;45.250;38.102;2023-04-25T06:58:56;12.99;78.34
74946;HTU21D;63509;45.250;38.102;2023-04-25T07:01:28;12.99;78.28
74946;HTU21D;63509;45.250;38.102;2023-04-25T07:03:55;12.99;78.27
74946;HTU21D;63509;45.250;38.102;2023-04-25T07:06:22;13.02;78.28
74946;HTU21D;63509;45.250;38.102;2023-04-25T07:08:49;13.03;78.27
74946;HTU21D;63509;45.250;38.102;2023-04-25T07:11:15;13.05;78.24
74946;HTU21D;63509;45.250;38.102;2023-04-25T07:13:40;13.07;78.22
74946;HTU21D;63509;45.250;38.102;2023-04-25T07:16:09;13.09;78.20
74946;HTU21D;63509;45.250;38.102;2023-04-25T07:18:36;13.10;78.19
74946;HTU21D;63509;45.250;38.102;2023-04-25T07:21:04;13.11;78.19
74946;HTU21D;63509;45.250;38.102;2023-04-25T07:23:32;13.12;78.18
74946;HTU21D;63509;45.250;38.102;2023-04-25T07:26:01;13.16;78.16
74946;HTU21D;63509;45.250;38.102;2023-04-25T07:28:29;13.18;78.14
74946;HTU21D;63509;45.250;38.102;2023-04-25T07:30:55;13.18;78.11
74946;HTU21D;63509;45.250;38.102;2023-04-25T07:33:21;13.20;78.09
74946;HTU21D;63509;45.250;38.102;2023-04-25T07:35:47;13.20;78.06
74946;HTU21D;63509;45.250;38.102;2023-04-25T07:38:13;13.21;78.05
74946;HTU21D;63509;45.250;38.102;2023-04-25T07:40:40;13.22;78.04
74946;HTU21D;63509;45.250;38.102;2023-04-25T07:43:08;13.24;78.02
74946;HTU21D;63509;45.250;38.102;2023-04-25T07:45:50;13.25;78.00
74946;HTU21D;63509;45.250;38.102;2023-04-25T07:48:18;13.27;78.00
74946;HTU21D;63509;45.250;38.102;2023-04-25T07:50:46;13.31;77.99
74946;HTU21D;63509;45.250;38.102;2023-04-25T07:53:12;13.34;77.98
74946;HTU21D;63509;45.250;38.102;2023-04-25T07:55:45;13.37;77.95
74946;HTU21D;63509;45.250;38.102;2023-04-25T07:58:15;13.40;77.94
74946;HTU21D;63509;45.250;38.102;2023-04-25T08:00:48;13.44;77.89
74946;HTU21D;63509;45.250;38.102;2023-04-25T08:03:38;13.45;77.85
74946;HTU21D;63509;45.250;38.102;2023-04-25T08:06:09;13.48;77.80
74946;HTU21D;63509;45.250;38.102;2023-04-25T08:08:45;13.51;77.75
74946;HTU21D;63509;45.250;38.102;2023-04-25T08:11:16;13.52;77.71
74946;HTU21D;63509;45.250;38.102;2023-04-25T08:13:42;13.56;77.69
74946;HTU21D;63509;45.250;38.102;2023-04-25T08:16:08;13.58;77.66
74946;HTU21D;63509;45.250;38.102;2023-04-25T08:18:35;13.61;77.61
74946;HTU21D;63509;45.250;38.102;2023-04-25T08:21:01;13.62;77.52
74946;HTU21D;63509;45.250;38.102;2023-04-25T08:23:27;13.63;77.44
74946;HTU21D;63509;45.250;38.102;2023-04-25T08:26:08;13.61;77.34
74946;HTU21D;63509;45.250;38.102;2023-04-25T08:28:38;13.58;77.28
74946;HTU21D;63509;45.250;38.102;2023-04-25T08:31:04;13.55;77.26
74946;HTU21D;63509;45.250;38.102;2023-04-25T08:33:38;13.53;77.26
74946;HTU21D;63509;45.250;38.102;2023-04-25T08:36:24;13.52;77.27
74946;HTU21D;63509;45.250;38.102;2023-04-25T08:38:51;13.52;77.27
74946;HTU21D;63509;45.250;38.102;2023-04-25T08:41:19;13.52;77.28
74946;HTU21D;63509;45.250;38.102;2023-04-25T08:43:48;13.52;77.31
74946;HTU21D;63509;45.250;38.102;2023-04-25T08:46:17;13.54;77.30
74946;HTU21D;63509;45.250;38.102;2023-04-25T08:49:00;13.56;77.31
74946;HTU21D;63509;45.250;38.102;2023-04-25T08:51:31;13.58;77.28
74946;HTU21D;63509;45.250;38.102;2023-04-25T08:54:10;13.60;77.23
74946;HTU21D;63509;45.250;38.102;2023-04-25T08:56:43;13.59;77.22
74946;HTU21D;63509;45.250;38.102;2023-04-25T08:59:13;13.62;77.24
74946;HTU21D;63509;45.250;38.102;2023-04-25T09:01:42;13.66;77.26
74946;HTU21D;63509;45.250;38.102;2023-04-25T09:04:08;13.71;77.25
74946;HTU21D;63509;45.250;38.102;2023-04-25T09:06:34;13.78;77.23
74946;HTU21D;63509;45.250;38.102;2023-04-25T09:09:03;13.82;77.18
74946;HTU21D;63509;45.250;38.102;2023-04-25T09:11:31;13.85;77.15
74946;HTU21D;63509;45.250;38.102;2023-04-25T09:14:16;13.91;77.11
74946;HTU21D;63509;45.250;38.102;2023-04-25T09:17:04;13.94;77.12
74946;HTU21D;63509;45.250;38.102;2023-04-25T09:19:37;13.99;77.07
74946;HTU21D;63509;45.250;38.102;2023-04-25T09:22:11;14.03;77.04
74946;HTU21D;63509;45.250;38.102;2023-04-25T09:24:43;14.08;77.03
74946;HTU21D;63509;45.250;38.102;2023-04-25T09:27:13;14.13;77.05
74946;HTU21D;63509;45.250;38.102;2023-04-25T09:29:43;14.23;77.06
74946;HTU21D;63509;45.250;38.102;2023-04-25T09:32:22;14.33;77.05
74946;HTU21D;63509;45.250;38.102;2023-04-25T09:34:52;14.40;76.96
74946;HTU21D;63509;45.250;38.102;2023-04-25T09:37:23;14.47;76.85
74946;HTU21D;63509;45.250;38.102;2023-04-25T09:40:06;14.50;76.74
74946;HTU21D;63509;45.250;38.102;2023-04-25T09:42:44;14.50;76.63
74946;HTU21D;63509;45.250;38.102;2023-04-25T09:45:13;14.50;76.57
74946;HTU21D;63509;45.250;38.102;2023-04-25T09:47:43;14.51;76.56
74946;HTU21D;63509;45.250;38.102;2023-04-25T09:50:17;14.54;76.54
74946;HTU21D;63509;45.250;38.102;2023-04-25T09:53:05;14.60;76.60
74946;HTU21D;63509;45.250;38.102;2023-04-25T09:55:51;14.69;76.62
74946;HTU21D;63509;45.250;38.102;2023-04-25T09:58:19;14.78;76.64
74946;HTU21D;63509;45.250;38.102;2023-04-25T10:00:45;14.87;76.60
74946;HTU21D;63509;45.250;38.102;2023-04-25T10:03:25;14.96;76.53
74946;HTU21D;63509;45.250;38.102;2023-04-25T10:06:18;15.04;76.52
74946;HTU21D;63509;45.250;38.102;2023-04-25T10:08:45;15.13;76.44
74946;HTU21D;63509;45.250;38.102;2023-04-25T10:11:15;15.18;76.35
74946;HTU21D;63509;45.250;38.102;2023-04-25T10:13:43;15.24;76.25
74946;HTU21D;63509;45.250;38.102;2023-04-25T10:16:10;15.28;76.23
74946;HTU21D;63509;45.250;38.102;2023-04-25T10:18:37;15.33;76.18
74946;HTU21D;63509;45.250;38.102;2023-04-25T10:21:04;15.41;76.13
74946;HTU21D;63509;45.250;38.102;2023-04-25T10:23:32;15.46;76.12
74946;HTU21D;63509;45.250;38.102;2023-04-25T10:26:01;15.53;76.00
74946;HTU21D;63509;45.250;38.102;2023-04-25T10:28:27;15.57;75.89
74946;HTU21D;63509;45.250;38.102;2023-04-25T10:31:00;15.62;75.87
74946;HTU21D;63509;45.250;38.102;2023-04-25T10:33:34;15.70;75.84
74946;HTU21D;63509;45.250;38.102;2023-04-25T10:36:17;15.74;75.78
74946;HTU21D;63509;45.250;38.102;2023-04-25T10:38:44;15.81;75.74
74946;HTU21D;63509;45.250;38.102;2023-04-25T10:41:12;15.86;75.70
74946;HTU21D;63509;45.250;38.102;2023-04-25T10:43:45;15.96;75.67
74946;HTU21D;63509;45.250;38.102;2023-04-25T10:46:19;16.04;75.68
74946;HTU21D;63509;45.250;38.102;2023-04-25T10:48:50;16.19;75.67
74946;HTU21D;63509;45.250;38.102;2023-04-25T10:56:26;16.78;75.50
74946;HTU21D;63509;45.250;38.102;2023-04-25T10:59:14;17.07;75.44
74946;HTU21D;63509;45.250;38.102;2023-04-25T11:01:51;17.29;75.31
74946;HTU21D;63509;45.250;38.102;2023-04-25T11:04:22;17.51;75.18
74946;HTU21D;63509;45.250;38.102;2023-04-25T11:09:34;17.93;74.73
74946;HTU21D;63509;45.250;38.102;2023-04-25T11:12:01;18.05;74.44
74946;HTU21D;63509;45.250;38.102;2023-04-25T11:14:27;18.17;74.44
74946;HTU21D;63509;45.250;38.102;2023-04-25T11:16:54;18.30;74.25
74946;HTU21D;63509;45.250;38.102;2023-04-25T11:19:24;18.41;74.14
74946;HTU21D;63509;45.250;38.102;2023-04-25T11:21:58;18.49;73.84
74946;HTU21D;63509;45.250;38.102;2023-04-25T11:24:35;18.51;73.79
74946;HTU21D;63509;45.250;38.102;2023-04-25T11:27:04;18.48;73.55
74946;HTU21D;63509;45.250;38.102;2023-04-25T11:29:32;18.41;73.46
74946;HTU21D;63509;45.250;38.102;2023-04-25T11:32:00;18.32;73.33
74946;HTU21D;63509;45.250;38.102;2023-04-25T11:34:27;18.23;73.26
74946;HTU21D;63509;45.250;38.102;2023-04-25T11:36:57;18.11;73.25
74946;HTU21D;63509;45.250;38.102;2023-04-25T11:39:27;18.00;73.28
74946;HTU21D;63509;45.250;38.102;2023-04-25T11:41:54;17.91;73.32
74946;HTU21D;63509;45.250;38.102;2023-04-25T11:44:21;17.85;73.32
74946;HTU21D;63509;45.250;38.102;2023-04-25T11:46:47;17.82;73.34
74946;HTU21D;63509;45.250;38.102;2023-04-25T11:49:14;17.80;73.32
74946;HTU21D;63509;45.250;38.102;2023-04-25T11:51:42;17.79;73.28
74946;HTU21D;63509;45.250;38.102;2023-04-25T11:54:09;17.75;73.18
74946;HTU21D;63509;45.250;38.102;2023-04-25T11:56:36;17.72;73.12
74946;HTU21D;63509;45.250;38.102;2023-04-25T11:59:06;17.67;73.15
74946;HTU21D;63509;45.250;38.102;2023-04-25T12:01:33;17.63;73.11
74946;HTU21D;63509;45.250;38.102;2023-04-25T12:04:24;17.62;73.09
74946;HTU21D;63509;45.250;38.102;2023-04-25T12:06:54;17.53;72.99
74946;HTU21D;63509;45.250;38.102;2023-04-25T12:09:29;17.48;72.98
74946;HTU21D;63509;45.250;38.102;2023-04-25T12:11:59;17.41;72.90
74946;HTU21D;63509;45.250;38.102;2023-04-25T12:14:32;17.35;72.90
74946;HTU21D;63509;45.250;38.102;2023-04-25T12:17:01;17.31;72.88
74946;HTU21D;63509;45.250;38.102;2023-04-25T12:19:32;17.24;72.88
74946;HTU21D;63509;45.250;38.102;2023-04-25T12:22:03;17.19;72.87
74946;HTU21D;63509;45.250;38.102;2023-04-25T12:24:29;17.17;72.86
74946;HTU21D;63509;45.250;38.102;2023-04-25T12:27:03;17.11;72.82
74946;HTU21D;63509;45.250;38.102;2023-04-25T12:29:33;17.06;72.75
74946;HTU21D;63509;45.250;38.102;2023-04-25T12:32:00;17.00;72.73
74946;HTU21D;63509;45.250;38.102;2023-04-25T12:34:27;16.93;72.70
74946;HTU21D;63509;45.250;38.102;2023-04-25T12:36:54;16.89;72.66
74946;HTU21D;63509;45.250;38.102;2023-04-25T12:39:23;16.82;72.66
74946;HTU21D;63509;45.250;38.102;2023-04-25T12:41:50;16.79;72.66
74946;HTU21D;63509;45.250;38.102;2023-04-25T12:44:18;16.78;72.67
74946;HTU21D;63509;45.250;38.102;2023-04-25T12:46:44;16.78;72.66
74946;HTU21D;63509;45.250;38.102;2023-04-25T12:49:10;16.77;72.64
74946;HTU21D;63509;45.250;38.102;2023-04-25T12:51:37;16.76;72.55
74946;HTU21D;63509;45.250;38.102;2023-04-25T12:54:04;16.74;72.54
74946;HTU21D;63509;45.250;38.102;2023-04-25T12:56:31;16.73;72.49
74946;HTU21D;63509;45.250;38.102;2023-04-25T12:58:58;16.73;72.45
74946;HTU21D;63509;45.250;38.102;2023-04-25T13:01:25;16.73;72.41
74946;HTU21D;63509;45.250;38.102;2023-04-25T13:03:53;16.71;72.37
74946;HTU21D;63509;45.250;38.102;2023-04-25T13:06:20;16.72;72.30
74946;HTU21D;63509;45.250;38.102;2023-04-25T13:08:46;16.71;72.25
74946;HTU21D;63509;45.250;38.102;2023-04-25T13:11:12;16.73;72.23
74946;HTU21D;63509;45.250;38.102;2023-04-25T13:13:40;16.75;72.17
74946;HTU21D;63509;45.250;38.102;2023-04-25T13:16:07;16.76;72.08
74946;HTU21D;63509;45.250;38.102;2023-04-25T13:18:34;16.77;72.01
74946;HTU21D;63509;45.250;38.102;2023-04-25T13:21:00;16.79;71.94
74946;HTU21D;63509;45.250;38.102;2023-04-25T13:23:27;16.84;71.84
74946;HTU21D;63509;45.250;38.102;2023-04-25T13:25:54;16.85;71.74
74946;HTU21D;63509;45.250;38.102;2023-04-25T13:28:21;16.87;71.65
74946;HTU21D;63509;45.250;38.102;2023-04-25T13:30:48;16.89;71.55
74946;HTU21D;63509;45.250;38.102;2023-04-25T13:33:15;16.90;71.47
74946;HTU21D;63509;45.250;38.102;2023-04-25T13:35:42;16.91;71.35
74946;HTU21D;63509;45.250;38.102;2023-04-25T13:38:09;16.90;71.29
74946;HTU21D;63509;45.250;38.102;2023-04-25T13:40:36;16.90;71.21
74946;HTU21D;63509;45.250;38.102;2023-04-25T13:43:02;16.89;71.15
74946;HTU21D;63509;45.250;38.102;2023-04-25T13:45:29;16.87;71.10
74946;HTU21D;63509;45.250;38.102;2023-04-25T13:47:55;16.87;71.06
74946;HTU21D;63509;45.250;38.102;2023-04-25T13:50:21;16.88;71.00
74946;HTU21D;63509;45.250;38.102;2023-04-25T13:52:47;16.86;70.94
74946;HTU21D;63509;45.250;38.102;2023-04-25T13:55:13;16.82;70.88
74946;HTU21D;63509;45.250;38.102;2023-04-25T13:57:39;16.78;70.85
74946;HTU21D;63509;45.250;38.102;2023-04-25T14:00:05;16.74;70.84
74946;HTU21D;63509;45.250;38.102;2023-04-25T14:02:38;16.71;70.84
74946;HTU21D;63509;45.250;38.102;2023-04-25T14:05:05;16.67;70.81
74946;HTU21D;63509;45.250;38.102;2023-04-25T14:07:31;16.64;70.79
74946;HTU21D;63509;45.250;38.102;2023-04-25T14:09:57;16.60;70.74
74946;HTU21D;63509;45.250;38.102;2023-04-25T14:12:23;16.56;70.74
74946;HTU21D;63509;45.250;38.102;2023-04-25T14:14:49;16.50;70.72
74946;HTU21D;63509;45.250;38.102;2023-04-25T14:17:15;16.45;70.72
74946;HTU21D;63509;45.250;38.102;2023-04-25T14:19:41;16.41;70.74
74946;HTU21D;63509;45.250;38.102;2023-04-25T14:22:14;16.34;70.74
74946;HTU21D;63509;45.250;38.102;2023-04-25T14:24:41;16.31;70.71
74946;HTU21D;63509;45.250;38.102;2023-04-25T14:27:07;16.27;70.68
74946;HTU21D;63509;45.250;38.102;2023-04-25T14:29:34;16.21;70.71
74946;HTU21D;63509;45.250;38.102;2023-04-25T14:32:02;16.16;70.72
74946;HTU21D;63509;45.250;38.102;2023-04-25T14:34:28;16.10;70.74
74946;HTU21D;63509;45.250;38.102;2023-04-25T14:36:54;16.06;70.75
74946;HTU21D;63509;45.250;38.102;2023-04-25T14:39:20;16.01;70.74
74946;HTU21D;63509;45.250;38.102;2023-04-25T14:41:46;15.98;70.75
74946;HTU21D;63509;45.250;38.102;2023-04-25T14:44:13;15.96;70.71
74946;HTU21D;63509;45.250;38.102;2023-04-25T14:46:39;15.92;70.71
74946;HTU21D;63509;45.250;38.102;2023-04-25T14:49:05;15.87;70.71
74946;HTU21D;63509;45.250;38.102;2023-04-25T14:51:31;15.85;70.70
74946;HTU21D;63509;45.250;38.102;2023-04-25T14:53:57;15.82;70.69
74946;HTU21D;63509;45.250;38.102;2023-04-25T14:56:23;15.78;70.69
74946;HTU21D;63509;45.250;38.102;2023-04-25T14:58:49;15.73;70.68
74946;HTU21D;63509;45.250;38.102;2023-04-25T15:01:16;15.68;70.67
74946;HTU21D;63509;45.250;38.102;2023-04-25T15:03:42;15.62;70.71
74946;HTU21D;63509;45.250;38.102;2023-04-25T15:06:08;15.57;70.72
74946;HTU21D;63509;45.250;38.102;2023-04-25T15:08:34;15.53;70.74
74946;HTU21D;63509;45.250;38.102;2023-04-25T15:11:01;15.44;70.74
74946;HTU21D;63509;45.250;38.102;2023-04-25T15:13:30;15.38;70.80
74946;HTU21D;63509;45.250;38.102;2023-04-25T15:15:56;15.32;70.80
74946;HTU21D;63509;45.250;38.102;2023-04-25T15:18:22;15.24;70.82
74946;HTU21D;63509;45.250;38.102;2023-04-25T15:20:52;15.19;70.84
74946;HTU21D;63509;45.250;38.102;2023-04-25T15:23:19;15.12;70.85
74946;HTU21D;63509;45.250;38.102;2023-04-25T15:25:46;15.06;70.90
74946;HTU21D;63509;45.250;38.102;2023-04-25T15:28:13;14.98;70.91